createdAt,value
2019-04-07T00:00:19.826Z,10.55
2019-04-07T00:01:19.407Z,10.55
2019-04-07T00:02:19.900Z,10.55
2019-04-07T00:03:19.588Z,10.56
2019-04-07T00:04:19.235Z,10.58
2019-04-07T00:05:19.604Z,10.56
2019-04-07T00:06:20.392Z,10.58
2019-04-07T00:07:19.595Z,10.59
2019-04-07T00:08:19.200Z,10.63
2019-04-07T00:09:20.438Z,10.65
2019-04-07T00:10:19.220Z,10.66
2019-04-07T00:11:19.554Z,10.73
2019-04-07T00:12:19.243Z,10.66
2019-04-07T00:13:19.413Z,10.66
2019-04-07T00:14:19.133Z,10.71
2019-04-07T00:15:19.149Z,10.71
2019-04-07T00:16:19.110Z,10.73
2019-04-07T00:17:19.257Z,10.71
2019-04-07T00:18:19.187Z,10.70
2019-04-07T00:19:19.922Z,10.66
2019-04-07T00:20:19.868Z,10.63
2019-04-07T00:21:19.082Z,10.59
2019-04-07T00:22:19.044Z,10.59
2019-04-07T00:23:19.046Z,10.60
2019-04-07T00:24:19.290Z,10.60
2019-04-07T00:25:19.316Z,10.60
2019-04-07T00:26:19.142Z,10.63
2019-04-07T00:27:19.990Z,10.65
2019-04-07T00:28:19.620Z,10.65
2019-04-07T00:29:19.557Z,10.66
2019-04-07T00:30:19.764Z,10.70
2019-04-07T00:31:19.408Z,10.70
2019-04-07T00:32:19.990Z,10.70
2019-04-07T00:33:19.172Z,10.70
2019-04-07T00:34:19.196Z,10.68
2019-04-07T00:35:26.532Z,10.68
2019-04-07T00:36:19.913Z,10.70
2019-04-07T00:37:18.888Z,10.70
2019-04-07T00:38:19.357Z,10.66
2019-04-07T00:39:19.098Z,10.62
2019-04-07T00:40:19.653Z,10.59
2019-04-07T00:41:18.841Z,10.59
2019-04-07T00:42:19.372Z,10.62
2019-04-07T00:43:18.839Z,10.62
2019-04-07T00:44:18.944Z,10.62
2019-04-07T00:45:19.118Z,10.59
2019-04-07T00:46:19.099Z,10.59
2019-04-07T00:47:18.780Z,10.58
2019-04-07T00:48:18.760Z,10.58
2019-04-07T00:49:19.240Z,10.52
2019-04-07T00:50:19.459Z,10.51
2019-04-07T00:51:18.817Z,10.43
2019-04-07T00:52:19.444Z,10.42
2019-04-07T00:53:18.990Z,10.37
2019-04-07T00:54:18.828Z,10.34
2019-04-07T00:55:18.810Z,10.34
2019-04-07T00:56:19.156Z,10.33
2019-04-07T00:57:18.699Z,10.33
2019-04-07T00:58:19.194Z,10.30
2019-04-07T00:59:18.648Z,10.30
2019-04-07T01:00:19.109Z,10.26
2019-04-07T01:01:18.639Z,10.26
2019-04-07T01:02:18.664Z,10.28
2019-04-07T01:03:19.477Z,10.32
2019-04-07T01:04:18.966Z,10.34
2019-04-07T01:05:18.964Z,10.36
2019-04-07T01:06:18.749Z,10.37
2019-04-07T01:07:19.177Z,10.34
2019-04-07T01:08:18.557Z,10.28
2019-04-07T01:09:18.769Z,10.22
2019-04-07T01:10:19.019Z,10.19
2019-04-07T01:11:18.946Z,10.21
2019-04-07T01:12:18.508Z,10.25
2019-04-07T01:13:18.488Z,10.24
2019-04-07T01:14:18.485Z,10.24
2019-04-07T01:15:18.629Z,10.25
2019-04-07T01:16:18.468Z,10.25
2019-04-07T01:17:19.089Z,10.28
2019-04-07T01:18:18.438Z,10.26
2019-04-07T01:19:18.918Z,10.24
2019-04-07T01:20:18.417Z,10.25
2019-04-07T01:21:19.173Z,10.28
2019-04-07T01:22:18.588Z,10.32
2019-04-07T01:23:18.387Z,10.28
2019-04-07T01:24:18.771Z,10.25
2019-04-07T01:25:18.377Z,10.25
2019-04-07T01:26:18.561Z,10.28
2019-04-07T01:27:18.378Z,10.26
2019-04-07T01:28:18.328Z,10.24
2019-04-07T01:29:18.490Z,10.21
2019-04-07T01:30:18.387Z,10.17
2019-04-07T01:31:18.778Z,10.15
2019-04-07T01:32:18.289Z,10.15
2019-04-07T01:33:18.306Z,10.12
2019-04-07T01:34:18.481Z,10.09
2019-04-07T01:35:18.255Z,10.09
2019-04-07T01:36:18.344Z,10.09
2019-04-07T01:37:18.709Z,10.07
2019-04-07T01:38:18.226Z,10.09
2019-04-07T01:39:18.351Z,10.07
2019-04-07T01:40:18.429Z,10.07
2019-04-07T01:41:18.614Z,10.04
2019-04-07T01:42:18.176Z,10.01
2019-04-07T01:43:18.166Z,10.01
2019-04-07T01:44:18.928Z,10.00
2019-04-07T01:45:18.185Z,10.00
2019-04-07T01:46:18.394Z,9.97
2019-04-07T01:47:18.126Z,9.91
2019-04-07T01:48:18.120Z,9.89
2019-04-07T01:49:18.409Z,9.91
2019-04-07T01:50:18.589Z,9.91
2019-04-07T01:51:18.816Z,9.91
2019-04-07T01:52:18.305Z,9.94
2019-04-07T01:53:18.064Z,9.96
2019-04-07T01:54:18.053Z,9.94
2019-04-07T01:55:18.120Z,9.89
2019-04-07T01:56:18.333Z,9.88
2019-04-07T01:57:18.455Z,9.86
2019-04-07T01:58:18.533Z,9.85
2019-04-07T01:59:18.002Z,9.82
2019-04-07T02:01:49.732Z,9.83
2019-04-07T02:02:49.725Z,9.85
2019-04-07T02:03:51.135Z,9.85
2019-04-07T02:04:50.083Z,9.83
2019-04-07T02:05:58.641Z,9.83
2019-04-07T02:06:50.624Z,9.79
2019-04-07T02:07:50.064Z,9.75
2019-04-07T02:08:49.635Z,9.71
2019-04-07T02:09:49.595Z,9.67
2019-04-07T02:10:49.631Z,9.67
2019-04-07T02:11:49.573Z,9.64
2019-04-07T02:12:49.891Z,9.64
2019-04-07T02:13:49.553Z,9.60
2019-04-07T02:14:49.931Z,9.57
2019-04-07T02:15:49.884Z,9.56
2019-04-07T02:16:49.990Z,9.57
2019-04-07T02:17:49.543Z,9.52
2019-04-07T02:18:49.606Z,9.46
2019-04-07T02:19:49.926Z,9.42
2019-04-07T02:20:49.927Z,9.39
2019-04-07T02:21:49.502Z,9.39
2019-04-07T02:22:49.829Z,9.39
2019-04-07T02:23:49.464Z,9.42
2019-04-07T02:24:49.886Z,9.43
2019-04-07T02:25:49.443Z,9.45
2019-04-07T02:26:49.749Z,9.45
2019-04-07T02:27:49.568Z,9.48
2019-04-07T02:28:49.564Z,9.48
2019-04-07T02:29:50.057Z,9.49
2019-04-07T02:30:49.408Z,9.53
2019-04-07T02:31:50.029Z,9.53
2019-04-07T02:32:49.987Z,9.53
2019-04-07T02:33:49.950Z,9.52
2019-04-07T02:34:49.342Z,9.50
2019-04-07T02:35:50.372Z,9.52
2019-04-07T02:36:49.940Z,9.53
2019-04-07T02:37:49.982Z,9.52
2019-04-07T02:38:50.011Z,9.50
2019-04-07T02:39:49.288Z,9.52
2019-04-07T02:40:49.270Z,9.50
2019-04-07T02:41:49.261Z,9.48
2019-04-07T02:42:50.126Z,9.42
2019-04-07T02:43:49.537Z,9.40
2019-04-07T02:44:49.414Z,9.38
2019-04-07T02:45:49.373Z,9.39
2019-04-07T02:46:49.219Z,9.40
2019-04-07T02:47:49.963Z,9.40
2019-04-07T02:48:49.190Z,9.42
2019-04-07T02:49:50.049Z,9.42
2019-04-07T02:50:49.231Z,9.45
2019-04-07T02:51:49.796Z,9.45
2019-04-07T02:52:49.217Z,9.43
2019-04-07T02:53:49.193Z,9.43
2019-04-07T02:54:49.684Z,9.42
2019-04-07T02:55:49.126Z,9.39
2019-04-07T02:56:49.415Z,9.35
2019-04-07T02:57:49.112Z,9.34
2019-04-07T02:58:49.759Z,9.28
2019-04-07T02:59:49.098Z,9.24
2019-04-07T03:00:50.483Z,9.24
2019-04-07T03:01:49.713Z,9.25
2019-04-07T03:02:49.688Z,9.25
2019-04-07T03:03:50.285Z,9.23
2019-04-07T03:04:49.024Z,9.21
2019-04-07T03:05:49.637Z,9.20
2019-04-07T03:06:52.877Z,9.16
2019-04-07T03:07:49.009Z,9.18
2019-04-07T03:08:49.240Z,9.13
2019-04-07T03:09:50.341Z,9.10
2019-04-07T03:10:49.274Z,9.10
2019-04-07T03:11:49.079Z,9.06
2019-04-07T03:12:48.938Z,8.99
2019-04-07T03:13:49.132Z,8.97
2019-04-07T03:14:49.404Z,8.94
2019-04-07T03:15:48.907Z,8.94
2019-04-07T03:16:49.555Z,8.91
2019-04-07T03:17:49.668Z,8.93
2019-04-07T03:18:48.880Z,8.93
2019-04-07T03:19:48.866Z,8.90
2019-04-07T03:20:49.536Z,8.91
2019-04-07T03:21:48.854Z,8.93
2019-04-07T03:22:48.832Z,8.96
2019-04-07T03:23:49.865Z,8.96
2019-04-07T03:24:49.662Z,8.94
2019-04-07T03:25:48.803Z,8.93
2019-04-07T03:26:49.099Z,8.91
2019-04-07T03:27:48.784Z,8.90
2019-04-07T03:28:49.386Z,8.90
2019-04-07T03:29:49.411Z,8.87
2019-04-07T03:30:51.112Z,8.87
2019-04-07T03:31:51.015Z,8.87
2019-04-07T03:32:50.990Z,8.84
2019-04-07T03:33:49.869Z,8.79
2019-04-07T03:34:49.575Z,8.78
2019-04-07T03:35:52.931Z,8.79
2019-04-07T03:37:15.210Z,8.76
2019-04-07T03:37:50.402Z,8.76
2019-04-07T03:38:48.690Z,8.79
2019-04-07T03:39:49.284Z,8.75
2019-04-07T03:40:49.627Z,8.75
2019-04-07T03:41:49.241Z,8.73
2019-04-07T03:42:48.627Z,8.75
2019-04-07T03:43:49.504Z,8.75
2019-04-07T03:44:49.029Z,8.78
2019-04-07T03:45:48.604Z,8.79
2019-04-07T03:46:49.345Z,8.75
2019-04-07T03:47:48.573Z,8.75
2019-04-07T03:48:48.573Z,8.78
2019-04-07T03:49:49.608Z,8.78
2019-04-07T03:50:48.695Z,8.75
2019-04-07T03:51:49.547Z,8.75
2019-04-07T03:52:48.989Z,8.73
2019-04-07T03:53:48.841Z,8.72
2019-04-07T03:54:48.806Z,8.72
2019-04-07T03:55:49.466Z,8.72
2019-04-07T03:56:48.500Z,8.73
2019-04-07T03:57:49.273Z,8.73
2019-04-07T03:58:49.356Z,8.72
2019-04-07T03:59:48.955Z,8.72
2019-04-07T04:00:48.442Z,8.69
2019-04-07T04:01:49.672Z,8.69
2019-04-07T04:02:48.458Z,8.68
2019-04-07T04:03:48.410Z,8.65
2019-04-07T04:04:48.962Z,8.60
2019-04-07T04:05:52.104Z,8.54
2019-04-07T04:06:49.488Z,8.50
2019-04-07T04:07:49.403Z,8.47
2019-04-07T04:08:48.981Z,8.47
2019-04-07T04:09:48.367Z,8.44
2019-04-07T04:10:48.491Z,8.44
2019-04-07T04:11:48.908Z,8.39
2019-04-07T04:12:49.717Z,8.35
2019-04-07T04:13:48.350Z,8.32
2019-04-07T04:14:48.311Z,8.30
2019-04-07T04:15:48.571Z,8.32
2019-04-07T04:16:49.099Z,8.29
2019-04-07T04:17:48.263Z,8.28
2019-04-07T04:18:48.322Z,8.26
2019-04-07T04:19:48.300Z,8.25
2019-04-07T04:20:48.625Z,8.26
2019-04-07T04:21:48.219Z,8.30
2019-04-07T04:22:48.616Z,8.30
2019-04-07T04:23:48.289Z,8.29
2019-04-07T04:24:48.743Z,8.29
2019-04-07T04:25:49.860Z,8.28
2019-04-07T04:26:48.173Z,8.30
2019-04-07T04:27:48.631Z,8.29
2019-04-07T04:28:48.795Z,8.29
2019-04-07T04:29:51.769Z,8.33
2019-04-07T04:30:48.451Z,8.37
2019-04-07T04:31:49.040Z,8.37
2019-04-07T04:32:48.107Z,8.42
2019-04-07T04:33:48.551Z,8.45
2019-04-07T04:34:48.087Z,8.44
2019-04-07T04:35:48.133Z,8.40
2019-04-07T04:36:48.369Z,8.35
2019-04-07T04:37:51.639Z,8.33
2019-04-07T04:38:49.054Z,8.32
2019-04-07T04:39:48.043Z,8.33
2019-04-07T04:40:48.057Z,8.33
2019-04-07T04:41:49.005Z,8.32
2019-04-07T04:42:48.552Z,8.29
2019-04-07T04:43:49.154Z,8.29
2019-04-07T04:44:47.977Z,8.28
2019-04-07T04:45:48.412Z,8.28
2019-04-07T04:46:48.624Z,8.22
2019-04-07T04:47:48.238Z,8.26
2019-04-07T04:48:47.936Z,8.25
2019-04-07T04:49:48.344Z,8.22
2019-04-07T04:50:47.916Z,8.22
2019-04-07T04:51:48.582Z,8.18
2019-04-07T04:52:48.732Z,8.20
2019-04-07T04:53:47.896Z,8.22
2019-04-07T04:54:47.889Z,8.25
2019-04-07T04:55:48.270Z,8.25
2019-04-07T04:56:47.859Z,8.29
2019-04-07T04:57:48.591Z,8.30
2019-04-07T04:58:47.898Z,8.28
2019-04-07T04:59:48.524Z,8.26
2019-04-07T05:00:48.463Z,8.25
2019-04-07T05:01:47.899Z,8.26
2019-04-07T05:02:48.076Z,8.25
2019-04-07T05:03:47.785Z,8.20
2019-04-07T05:04:47.775Z,8.21
2019-04-07T05:05:47.807Z,8.21
2019-04-07T05:06:47.892Z,8.25
2019-04-07T05:07:57.148Z,8.22
2019-04-07T05:08:48.724Z,8.25
2019-04-07T05:09:53.048Z,8.26
2019-04-07T05:10:48.713Z,8.28
2019-04-07T05:11:48.475Z,8.29
2019-04-07T05:12:48.248Z,8.26
2019-04-07T05:13:48.088Z,8.25
2019-04-07T05:14:48.050Z,8.26
2019-04-07T05:15:47.855Z,8.22
2019-04-07T05:16:48.103Z,8.22
2019-04-07T05:17:47.635Z,8.25
2019-04-07T05:18:48.167Z,8.25
2019-04-07T05:19:47.632Z,8.28
2019-04-07T05:20:47.716Z,8.30
2019-04-07T05:21:47.592Z,8.28
2019-04-07T05:22:47.862Z,8.28
2019-04-07T05:23:48.045Z,8.30
2019-04-07T05:24:47.633Z,8.29
2019-04-07T05:25:48.127Z,8.33
2019-04-07T05:26:47.752Z,8.37
2019-04-07T05:27:48.254Z,8.37
2019-04-07T05:28:48.254Z,8.40
2019-04-07T05:29:47.853Z,8.40
2019-04-07T05:30:48.052Z,8.42
2019-04-07T05:31:47.531Z,8.44
2019-04-07T05:32:47.842Z,8.44
2019-04-07T05:33:47.463Z,8.45
2019-04-07T05:34:47.733Z,8.48
2019-04-07T05:35:47.442Z,8.48
2019-04-07T05:36:47.838Z,8.50
2019-04-07T05:37:59.118Z,8.50
2019-04-07T05:38:48.408Z,8.50
2019-04-07T05:39:47.398Z,8.51
2019-04-07T05:40:47.552Z,8.53
2019-04-07T05:41:48.114Z,8.58
2019-04-07T05:42:47.537Z,8.60
2019-04-07T05:43:48.090Z,8.63
2019-04-07T05:44:47.625Z,8.63
2019-04-07T05:45:47.329Z,8.63
2019-04-07T05:46:49.583Z,8.63
2019-04-07T05:47:48.751Z,8.66
2019-04-07T05:48:50.516Z,8.69
2019-04-07T05:49:47.715Z,8.71
2019-04-07T05:50:47.345Z,8.76
2019-04-07T05:51:47.269Z,8.83
2019-04-07T05:52:47.700Z,8.87
2019-04-07T05:53:48.380Z,8.91
2019-04-07T05:54:49.942Z,8.96
2019-04-07T05:55:47.552Z,9.01
2019-04-07T05:56:47.218Z,9.02
2019-04-07T05:57:47.349Z,9.06
2019-04-07T05:58:47.261Z,9.06
2019-04-07T05:59:48.738Z,9.06
2019-04-07T06:00:48.710Z,9.02
2019-04-07T06:01:49.871Z,9.01
2019-04-07T06:02:48.203Z,9.01
2019-04-07T06:03:47.890Z,9.04
2019-04-07T06:04:48.425Z,9.10
2019-04-07T06:05:48.248Z,9.15
2019-04-07T06:06:50.545Z,9.21
2019-04-07T06:07:47.868Z,9.25
2019-04-07T06:08:48.524Z,9.31
2019-04-07T06:09:50.093Z,9.35
2019-04-07T06:10:47.076Z,9.38
2019-04-07T06:11:47.617Z,9.40
2019-04-07T06:12:48.254Z,9.45
2019-04-07T06:13:47.503Z,9.46
2019-04-07T06:14:47.684Z,9.49
2019-04-07T06:15:49.351Z,9.50
2019-04-07T06:16:47.055Z,9.52
2019-04-07T06:17:46.996Z,9.52
2019-04-07T06:18:47.700Z,9.52
2019-04-07T06:19:47.335Z,9.53
2019-04-07T06:20:47.656Z,9.56
2019-04-07T06:21:48.826Z,9.50
2019-04-07T06:22:52.139Z,9.57
2019-04-07T06:23:48.592Z,9.58
2019-04-07T06:24:47.121Z,9.63
2019-04-07T06:25:46.973Z,9.60
2019-04-07T06:26:49.686Z,9.63
2019-04-07T06:27:46.893Z,9.66
2019-04-07T06:28:51.520Z,9.71
2019-04-07T06:29:47.990Z,9.76
2019-04-07T06:30:47.449Z,9.83
2019-04-07T06:31:47.112Z,9.94
2019-04-07T06:32:47.274Z,10.07
2019-04-07T06:33:47.117Z,10.07
2019-04-07T06:34:49.023Z,10.14
2019-04-07T06:35:47.651Z,10.22
2019-04-07T06:36:51.774Z,10.30
2019-04-07T06:37:47.822Z,10.40
2019-04-07T06:38:51.443Z,10.51
2019-04-07T06:39:50.799Z,10.58
2019-04-07T06:40:46.798Z,10.70
2019-04-07T06:41:46.754Z,10.81
2019-04-07T06:42:46.735Z,10.94
2019-04-07T06:43:46.807Z,11.03
2019-04-07T06:44:50.057Z,11.14
2019-04-07T06:45:47.488Z,11.20
2019-04-07T06:46:46.961Z,11.32
2019-04-07T06:47:46.701Z,11.41
2019-04-07T06:48:47.122Z,11.53
2019-04-07T06:49:47.458Z,11.67
2019-04-07T06:50:50.879Z,11.75
2019-04-07T06:51:47.868Z,11.85
2019-04-07T06:52:47.652Z,11.97
2019-04-07T06:53:48.879Z,12.12
2019-04-07T06:54:47.056Z,12.26
2019-04-07T06:55:46.642Z,12.41
2019-04-07T06:56:46.657Z,12.54
2019-04-07T06:57:46.675Z,12.69
2019-04-07T06:58:46.574Z,12.85
2019-04-07T06:59:49.075Z,13.02
2019-04-07T07:00:46.592Z,13.17
2019-04-07T07:01:47.609Z,13.24
2019-04-07T07:02:46.533Z,13.29
2019-04-07T07:03:46.511Z,13.40
2019-04-07T07:04:46.823Z,13.56
2019-04-07T07:05:46.982Z,13.69
2019-04-07T07:06:48.285Z,13.83
2019-04-07T07:07:48.259Z,13.99
2019-04-07T07:08:47.539Z,14.16
2019-04-07T07:09:47.066Z,14.32
2019-04-07T07:10:46.775Z,14.35
2019-04-07T07:11:46.726Z,14.44
2019-04-07T07:12:47.001Z,14.44
2019-04-07T07:13:46.510Z,14.47
2019-04-07T07:14:47.346Z,14.42
2019-04-07T07:15:47.155Z,14.42
2019-04-07T07:16:46.922Z,14.49
2019-04-07T07:17:48.636Z,14.61
2019-04-07T07:18:47.090Z,14.65
2019-04-07T07:19:46.406Z,14.74
2019-04-07T07:20:46.348Z,14.81
2019-04-07T07:21:46.794Z,15.02
2019-04-07T07:22:47.877Z,15.21
2019-04-07T07:23:48.936Z,15.26
2019-04-07T07:24:47.273Z,15.31
2019-04-07T07:25:47.586Z,15.43
2019-04-07T07:26:46.288Z,15.68
2019-04-07T07:27:46.790Z,15.89
2019-04-07T07:28:46.989Z,16.15
2019-04-07T07:29:47.587Z,16.37
2019-04-07T07:30:50.403Z,16.56
2019-04-07T07:31:46.357Z,16.73
2019-04-07T07:32:46.426Z,16.95
2019-04-07T07:33:46.199Z,17.08
2019-04-07T07:34:46.681Z,17.38
2019-04-07T07:35:49.101Z,17.66
2019-04-07T07:36:46.710Z,17.99
2019-04-07T07:37:46.653Z,18.33
2019-04-07T07:38:57.237Z,18.68
2019-04-07T07:39:47.334Z,18.97
2019-04-07T07:40:47.778Z,19.28
2019-04-07T07:41:46.383Z,19.39
2019-04-07T07:42:48.700Z,19.60
2019-04-07T07:43:46.125Z,19.83
2019-04-07T07:44:48.329Z,19.98
2019-04-07T07:45:48.618Z,20.18
2019-04-07T07:46:49.167Z,20.38
2019-04-07T07:47:46.535Z,20.61
2019-04-07T07:48:46.799Z,20.74
2019-04-07T07:49:46.081Z,20.95
2019-04-07T07:50:46.030Z,21.14
2019-04-07T07:51:48.566Z,21.20
2019-04-07T07:52:49.217Z,21.42
2019-04-07T07:53:47.232Z,21.64
2019-04-07T07:54:46.351Z,21.94
2019-04-07T07:55:46.691Z,22.12
2019-04-07T07:56:49.378Z,22.34
2019-04-07T07:57:45.954Z,22.50
2019-04-07T07:58:46.061Z,22.56
2019-04-07T07:59:46.395Z,22.69
2019-04-07T08:00:46.097Z,22.99
2019-04-07T08:01:47.066Z,23.08
2019-04-07T08:02:49.076Z,22.80
2019-04-07T08:03:45.944Z,22.72
2019-04-07T08:04:45.972Z,22.86
2019-04-07T08:05:46.556Z,22.94
2019-04-07T08:06:46.257Z,22.72
2019-04-07T08:07:48.993Z,22.52
2019-04-07T08:08:47.561Z,22.34
2019-04-07T08:09:48.053Z,22.75
2019-04-07T08:10:46.278Z,23.05
2019-04-07T08:11:45.847Z,23.08
2019-04-07T08:12:49.182Z,22.96
2019-04-07T08:13:47.137Z,23.38
2019-04-07T08:14:49.754Z,23.86
2019-04-07T08:15:46.960Z,24.19
2019-04-07T08:16:45.758Z,24.63
2019-04-07T08:17:46.349Z,24.44
2019-04-07T08:18:46.697Z,24.85
2019-04-07T08:19:46.638Z,24.67
2019-04-07T08:20:45.994Z,23.97
2019-04-07T08:21:50.090Z,23.75
2019-04-07T08:22:47.086Z,24.01
2019-04-07T08:23:45.678Z,24.26
2019-04-07T08:24:49.564Z,24.90
2019-04-07T08:25:47.113Z,25.06
2019-04-07T08:26:45.934Z,24.91
2019-04-07T08:27:45.639Z,25.12
2019-04-07T08:28:45.619Z,25.31
2019-04-07T08:29:46.227Z,25.32
2019-04-07T08:30:47.494Z,24.53
2019-04-07T08:31:46.960Z,24.63
2019-04-07T08:32:45.588Z,24.45
2019-04-07T08:33:46.402Z,24.59
2019-04-07T08:34:45.944Z,24.59
2019-04-07T08:35:45.549Z,24.39
2019-04-07T08:36:47.069Z,24.41
2019-04-07T08:37:47.110Z,24.10
2019-04-07T08:38:45.607Z,24.29
2019-04-07T08:39:45.508Z,23.98
2019-04-07T08:40:45.626Z,24.07
2019-04-07T08:41:45.894Z,24.56
2019-04-07T08:42:48.277Z,25.17
2019-04-07T08:43:46.519Z,25.22
2019-04-07T08:44:46.252Z,25.28
2019-04-07T08:45:46.030Z,25.09
2019-04-07T08:46:45.804Z,25.00
2019-04-07T08:47:48.033Z,25.01
2019-04-07T08:48:49.713Z,25.05
2019-04-07T08:49:47.086Z,25.07
2019-04-07T08:50:46.359Z,25.12
2019-04-07T08:51:45.998Z,25.27
2019-04-07T08:52:45.623Z,25.19
2019-04-07T08:53:46.084Z,25.30
2019-04-07T08:54:48.878Z,25.13
2019-04-07T08:55:48.732Z,24.97
2019-04-07T08:56:45.928Z,25.01
2019-04-07T08:57:45.771Z,24.90
2019-04-07T08:58:45.754Z,24.60
2019-04-07T08:59:45.336Z,24.56
2019-04-07T09:00:48.207Z,25.05
2019-04-07T09:01:45.310Z,25.35
2019-04-07T09:02:46.493Z,25.74
2019-04-07T09:03:45.760Z,25.90
2019-04-07T09:04:49.778Z,25.97
2019-04-07T09:05:45.527Z,26.40
2019-04-07T09:06:45.228Z,26.80
2019-04-07T09:07:47.136Z,27.04
2019-04-07T09:08:45.205Z,27.04
2019-04-07T09:09:47.829Z,27.01
2019-04-07T09:10:45.198Z,26.94
2019-04-07T09:11:45.964Z,27.05
2019-04-07T09:12:45.175Z,27.19
2019-04-07T09:13:45.195Z,27.02
2019-04-07T09:14:45.641Z,26.83
2019-04-07T09:15:48.485Z,27.02
2019-04-07T09:16:47.547Z,26.74
2019-04-07T09:17:47.388Z,27.13
2019-04-07T09:18:52.831Z,26.86
2019-04-07T09:19:46.889Z,26.69
2019-04-07T09:20:48.456Z,25.54
2019-04-07T09:21:49.600Z,23.98
2019-04-07T09:22:47.464Z,22.72
2019-04-07T09:23:45.774Z,21.85
2019-04-07T09:24:45.104Z,21.56
2019-04-07T09:25:46.578Z,21.35
2019-04-07T09:26:45.643Z,21.24
2019-04-07T09:27:48.021Z,21.06
2019-04-07T09:28:45.401Z,20.89
2019-04-07T09:29:45.301Z,20.87
2019-04-07T09:30:45.764Z,20.79
2019-04-07T09:31:45.094Z,20.59
2019-04-07T09:32:45.011Z,20.59
2019-04-07T09:33:48.106Z,20.59
2019-04-07T09:34:48.159Z,20.50
2019-04-07T09:35:46.119Z,20.41
2019-04-07T09:36:47.893Z,20.18
2019-04-07T09:37:47.035Z,20.15
2019-04-07T09:38:45.931Z,20.15
2019-04-07T09:39:57.842Z,20.09
2019-04-07T09:40:48.227Z,20.08
2019-04-07T09:41:45.524Z,20.03
2019-04-07T09:42:44.929Z,19.95
2019-04-07T09:43:45.056Z,20.06
2019-04-07T09:44:45.306Z,20.18
2019-04-07T09:45:44.824Z,20.10
2019-04-07T09:46:48.364Z,20.13
2019-04-07T09:47:47.775Z,20.13
2019-04-07T09:48:48.827Z,19.97
2019-04-07T09:49:48.500Z,20.08
2019-04-07T09:50:44.938Z,20.18
2019-04-07T09:51:44.960Z,20.24
2019-04-07T09:52:45.858Z,20.23
2019-04-07T09:53:44.883Z,20.20
2019-04-07T09:54:44.755Z,20.12
2019-04-07T09:55:46.403Z,20.05
2019-04-07T09:56:45.114Z,20.03
2019-04-07T09:57:45.084Z,19.98
2019-04-07T09:58:45.519Z,19.87
2019-04-07T09:59:46.676Z,19.90
2019-04-07T10:00:46.503Z,19.90
2019-04-07T10:01:45.821Z,19.97
2019-04-07T10:02:45.927Z,20.06
2019-04-07T10:03:44.717Z,20.09
2019-04-07T10:04:44.779Z,20.08
2019-04-07T10:05:44.665Z,19.91
2019-04-07T10:06:45.106Z,19.90
2019-04-07T10:07:45.087Z,19.95
2019-04-07T10:08:45.528Z,19.90
2019-04-07T10:09:46.205Z,19.98
2019-04-07T10:10:44.891Z,20.12
2019-04-07T10:11:44.615Z,20.16
2019-04-07T10:12:45.926Z,20.28
2019-04-07T10:13:46.340Z,20.54
2019-04-07T10:14:45.277Z,20.98
2019-04-07T10:15:45.773Z,21.66
2019-04-07T10:16:45.741Z,22.43
2019-04-07T10:17:47.086Z,23.61
2019-04-07T10:18:45.882Z,24.77
2019-04-07T10:19:44.696Z,25.68
2019-04-07T10:20:44.546Z,25.69
2019-04-07T10:21:45.223Z,26.58
2019-04-07T10:22:44.485Z,26.94
2019-04-07T10:23:44.588Z,27.21
2019-04-07T10:24:44.933Z,27.32
2019-04-07T10:25:45.543Z,27.35
2019-04-07T10:26:45.106Z,28.35
2019-04-07T10:27:45.140Z,29.28
2019-04-07T10:28:46.160Z,30.07
2019-04-07T10:29:45.296Z,30.15
2019-04-07T10:30:45.826Z,30.00
2019-04-07T10:31:45.264Z,30.31
2019-04-07T10:32:45.326Z,30.36
2019-04-07T10:33:44.392Z,30.47
2019-04-07T10:34:44.962Z,30.62
2019-04-07T10:35:44.505Z,30.53
2019-04-07T10:36:45.491Z,31.23
2019-04-07T10:37:44.954Z,30.71
2019-04-07T10:38:45.117Z,30.49
2019-04-07T10:39:44.285Z,30.16
2019-04-07T10:40:44.278Z,30.19
2019-04-07T10:41:45.211Z,30.30
2019-04-07T10:42:45.910Z,30.90
2019-04-07T10:43:45.212Z,31.76
2019-04-07T10:44:44.472Z,31.88
2019-04-07T10:45:44.999Z,32.05
2019-04-07T10:46:45.020Z,32.44
2019-04-07T10:47:44.826Z,32.67
2019-04-07T10:48:45.684Z,31.11
2019-04-07T10:49:44.327Z,30.07
2019-04-07T10:50:44.590Z,29.01
2019-04-07T10:51:45.949Z,29.53
2019-04-07T10:52:44.368Z,30.23
2019-04-07T10:53:44.965Z,29.78
2019-04-07T10:54:45.094Z,29.37
2019-04-07T10:55:45.229Z,29.38
2019-04-07T10:56:45.060Z,28.77
2019-04-07T10:57:45.884Z,28.56
2019-04-07T10:58:47.206Z,29.13
2019-04-07T10:59:45.560Z,29.84
2019-04-07T11:00:49.410Z,30.07
2019-04-07T11:01:46.916Z,30.12
2019-04-07T11:02:46.444Z,29.00
2019-04-07T11:03:45.347Z,29.72
2019-04-07T11:04:46.028Z,30.34
2019-04-07T11:05:44.783Z,30.49
2019-04-07T11:06:45.021Z,30.23
2019-04-07T11:07:45.821Z,29.22
2019-04-07T11:08:44.243Z,29.18
2019-04-07T11:09:45.910Z,30.54
2019-04-07T11:10:45.285Z,30.76
2019-04-07T11:11:46.679Z,30.45
2019-04-07T11:12:45.800Z,30.64
2019-04-07T11:13:45.765Z,29.74
2019-04-07T11:14:44.490Z,29.55
2019-04-07T11:15:44.911Z,30.18
2019-04-07T11:16:45.290Z,30.98
2019-04-07T11:17:44.053Z,31.35
2019-04-07T11:18:44.055Z,30.45
2019-04-07T11:19:44.524Z,29.90
2019-04-07T11:20:44.461Z,29.26
2019-04-07T11:21:44.611Z,28.78
2019-04-07T11:22:44.168Z,29.16
2019-04-07T11:23:45.139Z,29.43
2019-04-07T11:24:43.848Z,29.50
2019-04-07T11:25:43.975Z,28.77
2019-04-07T11:26:43.812Z,28.33
2019-04-07T11:27:44.195Z,28.70
2019-04-07T11:28:44.505Z,28.04
2019-04-07T11:29:43.987Z,28.23
2019-04-07T11:30:45.435Z,28.43
2019-04-07T11:31:45.473Z,29.13
2019-04-07T11:32:46.152Z,29.47
2019-04-07T11:33:45.895Z,29.22
2019-04-07T11:34:45.428Z,29.01
2019-04-07T11:35:45.602Z,29.19
2019-04-07T11:36:45.326Z,29.79
2019-04-07T11:37:44.160Z,30.91
2019-04-07T11:38:45.501Z,31.02
2019-04-07T11:39:46.247Z,31.95
2019-04-07T11:40:50.003Z,30.50
2019-04-07T11:41:46.030Z,30.16
2019-04-07T11:42:46.055Z,29.82
2019-04-07T11:43:46.850Z,29.81
2019-04-07T11:44:43.673Z,29.60
2019-04-07T11:45:56.314Z,29.56
2019-04-07T11:46:45.339Z,29.75
2019-04-07T11:47:43.688Z,29.99
2019-04-07T11:48:43.605Z,30.62
2019-04-07T11:49:44.718Z,30.78
2019-04-07T11:50:43.907Z,31.42
2019-04-07T11:51:46.737Z,31.82
2019-04-07T11:52:44.686Z,31.58
2019-04-07T11:53:45.965Z,30.94
2019-04-07T11:54:44.351Z,29.93
2019-04-07T11:55:44.293Z,29.63
2019-04-07T11:56:45.941Z,28.97
2019-04-07T11:57:45.272Z,29.47
2019-04-07T11:58:45.246Z,29.87
2019-04-07T11:59:45.816Z,29.96
2019-04-07T12:00:47.368Z,30.08
2019-04-07T12:01:51.023Z,30.26
2019-04-07T12:05:09.858Z,30.52
2019-04-07T12:05:38.610Z,31.46
2019-04-07T12:06:30.653Z,31.80
2019-04-07T12:07:25.037Z,32.03
2019-04-07T12:08:24.553Z,31.46
2019-04-07T12:09:24.283Z,31.38
2019-04-07T12:11:34.574Z,30.68
2019-04-07T12:12:34.388Z,30.80
2019-04-07T12:13:33.774Z,31.13
2019-04-07T12:14:33.863Z,31.60
2019-04-07T12:15:34.748Z,30.98
2019-04-07T12:16:34.993Z,30.67
2019-04-07T12:17:33.973Z,30.62
2019-04-07T12:18:34.143Z,31.35
2019-04-07T12:19:34.632Z,31.92
2019-04-07T12:20:34.112Z,31.15
2019-04-07T12:21:36.951Z,30.18
2019-04-07T12:22:32.828Z,29.78
2019-04-07T12:23:34.248Z,30.56
2019-04-07T12:24:35.138Z,31.17
2019-04-07T12:25:35.268Z,32.15
2019-04-07T12:26:38.009Z,33.17
2019-04-07T12:27:34.620Z,33.76
2019-04-07T12:28:34.418Z,34.24
2019-04-07T12:29:34.289Z,32.88
2019-04-07T12:30:33.789Z,32.27
2019-04-07T12:31:33.662Z,31.38
2019-04-07T12:32:34.225Z,30.75
2019-04-07T12:33:37.480Z,30.89
2019-04-07T12:34:34.369Z,31.13
2019-04-07T12:35:39.338Z,31.18
2019-04-07T12:36:34.812Z,30.23
2019-04-07T12:37:39.342Z,30.15
2019-04-07T12:38:34.946Z,30.52
2019-04-07T12:39:36.125Z,31.26
2019-04-07T12:40:34.332Z,30.68
2019-04-07T12:41:34.710Z,30.86
2019-04-07T12:42:35.698Z,30.98
2019-04-07T12:43:34.031Z,31.96
2019-04-07T12:44:35.465Z,32.71
2019-04-07T12:45:34.949Z,33.43
2019-04-07T12:46:34.556Z,33.55
2019-04-07T12:47:34.408Z,32.51
2019-04-07T12:48:33.584Z,32.30
2019-04-07T12:49:35.073Z,31.62
2019-04-07T12:50:49.954Z,31.23
2019-04-07T12:51:35.809Z,30.74
2019-04-07T12:52:33.470Z,30.29
2019-04-07T12:53:36.235Z,30.07
2019-04-07T12:54:34.159Z,30.53
2019-04-07T12:55:37.246Z,30.62
2019-04-07T12:56:34.333Z,30.53
2019-04-07T12:57:45.915Z,31.53
2019-04-07T12:58:35.672Z,31.82
2019-04-07T12:59:37.623Z,31.84
2019-04-07T13:01:12.710Z,31.68
2019-04-07T13:03:11.728Z,30.31
2019-04-07T13:04:12.254Z,30.26
2019-04-07T13:05:12.151Z,30.81
2019-04-07T13:06:12.376Z,30.62
2019-04-07T13:07:15.120Z,30.43